sensor_id;sensor_type;location;lat;lon;timestamp;pressure;altitude;pressure_sealevel;temperature;humidity
12759;BME280;20944;47.048;15.390;2022-10-20T00:02:14;98473.88;;;13.31;77.36
12759;BME280;20944;47.048;15.390;2022-10-20T00:05:02;98481.56;;;13.38;76.62
12759;BME280;20944;47.048;15.390;2022-10-20T00:07:52;98482.63;;;13.33;77.23
12759;BME280;20944;47.048;15.390;2022-10-20T00:10:41;98490.78;;;13.22;78.91
12759;BME280;20944;47.048;15.390;2022-10-20T00:13:29;98487.19;;;13.25;77.50
12759;BME280;20944;47.048;15.390;2022-10-20T00:16:18;98488.16;;;13.19;77.41
12759;BME280;20944;47.048;15.390;2022-10-20T00:19:06;98482.03;;;13.18;77.58
12759;BME280;20944;47.048;15.390;2022-10-20T00:21:55;98481.00;;;13.27;75.03
12759;BME280;20944;47.048;15.390;2022-10-20T00:24:45;98478.50;;;13.19;75.89
12759;BME280;20944;47.048;15.390;2022-10-20T00:27:33;98476.97;;;13.11;77.74
12759;BME280;20944;47.048;15.390;2022-10-20T00:30:22;98484.06;;;13.09;78.37
12759;BME280;20944;47.048;15.390;2022-10-20T00:33:11;98483.91;;;13.13;76.57
12759;BME280;20944;47.048;15.390;2022-10-20T00:36:00;98483.06;;;13.13;76.21
12759;BME280;20944;47.048;15.390;2022-10-20T00:38:49;98466.25;;;13.20;75.59
12759;BME280;20944;47.048;15.390;2022-10-20T00:41:39;98472.44;;;13.17;75.66
12759;BME280;20944;47.048;15.390;2022-10-20T00:44:47;98474.13;;;13.20;76.25
12759;BME280;20944;47.048;15.390;2022-10-20T00:47:37;98470.47;;;13.27;75.43
12759;BME280;20944;47.048;15.390;2022-10-20T00:50:26;98474.13;;;13.21;73.48
12759;BME280;20944;47.048;15.390;2022-10-20T00:53:16;98475.00;;;13.19;72.38
12759;BME280;20944;47.048;15.390;2022-10-20T00:56:05;98465.53;;;13.12;74.14
12759;BME280;20944;47.048;15.390;2022-10-20T00:58:55;98465.34;;;13.19;72.98
12759;BME280;20944;47.048;15.390;2022-10-20T01:01:44;98471.66;;;13.14;73.68
12759;BME280;20944;47.048;15.390;2022-10-20T01:04:32;98469.97;;;13.10;71.87
12759;BME280;20944;47.048;15.390;2022-10-20T01:07:21;98468.28;;;13.07;72.36
12759;BME280;20944;47.048;15.390;2022-10-20T01:10:10;98460.38;;;13.09;70.90
12759;BME280;20944;47.048;15.390;2022-10-20T01:12:59;98460.50;;;13.03;71.14
12759;BME280;20944;47.048;15.390;2022-10-20T01:15:51;98453.63;;;12.97;70.55
12759;BME280;20944;47.048;15.390;2022-10-20T01:18:44;98451.75;;;13.02;69.47
12759;BME280;20944;47.048;15.390;2022-10-20T01:21:45;98452.66;;;13.01;69.17
12759;BME280;20944;47.048;15.390;2022-10-20T01:24:51;98452.69;;;13.00;69.75
12759;BME280;20944;47.048;15.390;2022-10-20T01:27:43;98444.72;;;13.03;70.86
12759;BME280;20944;47.048;15.390;2022-10-20T01:30:32;98442.06;;;13.04;70.15
12759;BME280;20944;47.048;15.390;2022-10-20T01:33:26;98429.00;;;13.01;70.45
12759;BME280;20944;47.048;15.390;2022-10-20T01:36:19;98435.03;;;13.05;71.14
12759;BME280;20944;47.048;15.390;2022-10-20T01:39:08;98423.63;;;13.04;70.45
12759;BME280;20944;47.048;15.390;2022-10-20T01:42:00;98434.13;;;13.06;71.44
12759;BME280;20944;47.048;15.390;2022-10-20T01:44:50;98423.53;;;13.07;71.05
12759;BME280;20944;47.048;15.390;2022-10-20T01:47:41;98423.47;;;13.10;70.47
12759;BME280;20944;47.048;15.390;2022-10-20T01:50:31;98423.53;;;13.07;70.33
12759;BME280;20944;47.048;15.390;2022-10-20T01:53:20;98411.28;;;13.08;70.72
12759;BME280;20944;47.048;15.390;2022-10-20T01:56:14;98399.75;;;13.12;71.03
12759;BME280;20944;47.048;15.390;2022-10-20T01:59:31;98397.31;;;13.04;71.31
12759;BME280;20944;47.048;15.390;2022-10-20T02:02:35;98420.13;;;13.04;72.66
12759;BME280;20944;47.048;15.390;2022-10-20T02:05:46;98422.81;;;13.01;73.39
12759;BME280;20944;47.048;15.390;2022-10-20T02:08:42;98397.00;;;12.82;75.19
12759;BME280;20944;47.048;15.390;2022-10-20T02:11:38;98423.13;;;12.88;74.62
12759;BME280;20944;47.048;15.390;2022-10-20T02:14:27;98421.25;;;12.93;76.26
12759;BME280;20944;47.048;15.390;2022-10-20T02:17:19;98422.31;;;12.86;77.43
12759;BME280;20944;47.048;15.390;2022-10-20T02:20:10;98416.38;;;12.78;77.25
12759;BME280;20944;47.048;15.390;2022-10-20T02:22:59;98420.97;;;12.68;78.69
12759;BME280;20944;47.048;15.390;2022-10-20T02:25:51;98417.28;;;12.76;81.23
12759;BME280;20944;47.048;15.390;2022-10-20T02:28:44;98410.25;;;12.78;82.90
12759;BME280;20944;47.048;15.390;2022-10-20T02:31:34;98408.31;;;12.86;80.53
12759;BME280;20944;47.048;15.390;2022-10-20T02:34:25;98409.13;;;12.88;81.62
12759;BME280;20944;47.048;15.390;2022-10-20T02:37:15;98371.31;;;12.56;83.37
12759;BME280;20944;47.048;15.390;2022-10-20T02:40:05;98409.78;;;12.98;82.35
12759;BME280;20944;47.048;15.390;2022-10-20T02:42:54;98396.06;;;12.85;80.97
12759;BME280;20944;47.048;15.390;2022-10-20T02:45:42;98411.78;;;12.86;84.02
12759;BME280;20944;47.048;15.390;2022-10-20T02:48:31;98416.53;;;12.72;81.06
12759;BME280;20944;47.048;15.390;2022-10-20T02:51:19;98407.97;;;12.64;81.20
12759;BME280;20944;47.048;15.390;2022-10-20T02:54:10;98415.00;;;12.62;82.45
12759;BME280;20944;47.048;15.390;2022-10-20T02:56:58;98407.97;;;12.64;81.50
12759;BME280;20944;47.048;15.390;2022-10-20T02:59:47;98408.38;;;12.46;80.25
12759;BME280;20944;47.048;15.390;2022-10-20T03:02:36;98403.22;;;12.41;79.61
12759;BME280;20944;47.048;15.390;2022-10-20T03:05:24;98424.84;;;12.54;78.34
12759;BME280;20944;47.048;15.390;2022-10-20T03:08:14;98419.50;;;12.57;79.65
12759;BME280;20944;47.048;15.390;2022-10-20T03:11:04;98322.13;;;11.85;81.52
12759;BME280;20944;47.048;15.390;2022-10-20T03:13:53;98413.66;;;12.44;83.04
12759;BME280;20944;47.048;15.390;2022-10-20T03:16:41;98385.19;;;12.26;82.70
12759;BME280;20944;47.048;15.390;2022-10-20T03:19:30;98417.00;;;12.51;81.52
12759;BME280;20944;47.048;15.390;2022-10-20T03:22:19;98423.28;;;12.45;82.39
12759;BME280;20944;47.048;15.390;2022-10-20T03:25:07;98421.56;;;12.42;80.81
12759;BME280;20944;47.048;15.390;2022-10-20T03:27:57;98420.66;;;12.45;80.87
12759;BME280;20944;47.048;15.390;2022-10-20T03:30:46;98267.06;;;11.41;84.39
12759;BME280;20944;47.048;15.390;2022-10-20T03:33:35;98322.44;;;11.70;84.06
12759;BME280;20944;47.048;15.390;2022-10-20T03:36:24;98390.84;;;12.07;81.59
12759;BME280;20944;47.048;15.390;2022-10-20T03:39:12;98428.00;;;12.29;80.05
12759;BME280;20944;47.048;15.390;2022-10-20T03:42:01;98425.47;;;12.25;80.30
12759;BME280;20944;47.048;15.390;2022-10-20T03:44:51;98429.00;;;12.24;81.61
12759;BME280;20944;47.048;15.390;2022-10-20T03:47:40;98421.28;;;12.16;81.32
12759;BME280;20944;47.048;15.390;2022-10-20T03:50:28;98403.25;;;12.01;79.71
12759;BME280;20944;47.048;15.390;2022-10-20T03:53:17;98425.97;;;12.02;80.19
12759;BME280;20944;47.048;15.390;2022-10-20T03:56:07;98373.19;;;11.71;79.86
12759;BME280;20944;47.048;15.390;2022-10-20T03:58:56;98428.59;;;12.00;80.32
12759;BME280;20944;47.048;15.390;2022-10-20T04:01:47;98401.72;;;11.87;80.21
12759;BME280;20944;47.048;15.390;2022-10-20T04:04:36;98424.19;;;12.04;79.68
12759;BME280;20944;47.048;15.390;2022-10-20T04:07:25;98266.75;;;11.11;80.45
12759;BME280;20944;47.048;15.390;2022-10-20T04:10:14;98419.94;;;11.97;79.76
12759;BME280;20944;47.048;15.390;2022-10-20T04:13:03;98415.59;;;11.96;78.94
12759;BME280;20944;47.048;15.390;2022-10-20T04:15:52;98397.41;;;11.85;81.98
12759;BME280;20944;47.048;15.390;2022-10-20T04:18:42;98411.28;;;11.92;80.77
12759;BME280;20944;47.048;15.390;2022-10-20T04:21:31;98355.00;;;11.60;79.21
12759;BME280;20944;47.048;15.390;2022-10-20T04:24:19;98407.03;;;11.86;81.20
12759;BME280;20944;47.048;15.390;2022-10-20T04:27:08;98387.13;;;11.73;81.51
12759;BME280;20944;47.048;15.390;2022-10-20T04:29:57;98272.09;;;11.08;81.35
12759;BME280;20944;47.048;15.390;2022-10-20T04:32:46;98398.47;;;11.76;80.31
12759;BME280;20944;47.048;15.390;2022-10-20T04:35:36;98346.00;;;11.28;81.21
12759;BME280;20944;47.048;15.390;2022-10-20T04:38:25;98388.03;;;11.72;80.39
12759;BME280;20944;47.048;15.390;2022-10-20T04:41:14;98404.53;;;11.78;79.36
12759;BME280;20944;47.048;15.390;2022-10-20T04:44:03;98325.81;;;11.33;80.13
12759;BME280;20944;47.048;15.390;2022-10-20T04:46:52;98402.72;;;11.80;80.55
12759;BME280;20944;47.048;15.390;2022-10-20T04:49:41;98397.59;;;11.74;80.62
12759;BME280;20944;47.048;15.390;2022-10-20T04:52:31;98392.25;;;11.82;79.15
12759;BME280;20944;47.048;15.390;2022-10-20T04:55:20;98392.22;;;11.80;79.32
12759;BME280;20944;47.048;15.390;2022-10-20T04:58:09;98390.22;;;11.95;78.47
12759;BME280;20944;47.048;15.390;2022-10-20T05:01:00;98369.47;;;11.82;77.01
12759;BME280;20944;47.048;15.390;2022-10-20T05:03:49;98390.25;;;11.93;77.35
12759;BME280;20944;47.048;15.390;2022-10-20T05:06:38;98394.66;;;11.91;77.55
12759;BME280;20944;47.048;15.390;2022-10-20T05:09:28;98380.06;;;11.75;77.10
12759;BME280;20944;47.048;15.390;2022-10-20T05:12:18;98360.84;;;11.76;77.31
12759;BME280;20944;47.048;15.390;2022-10-20T05:15:07;98270.13;;;11.19;78.09
12759;BME280;20944;47.048;15.390;2022-10-20T05:17:56;98371.22;;;11.80;80.18
12759;BME280;20944;47.048;15.390;2022-10-20T05:20:45;98391.88;;;11.99;79.45
12759;BME280;20944;47.048;15.390;2022-10-20T05:23:54;98396.00;;;12.10;77.90
12759;BME280;20944;47.048;15.390;2022-10-20T05:26:45;98395.22;;;12.07;78.27
12759;BME280;20944;47.048;15.390;2022-10-20T05:29:33;98397.09;;;12.02;78.27
12759;BME280;20944;47.048;15.390;2022-10-20T05:32:22;98404.16;;;11.98;79.15
12759;BME280;20944;47.048;15.390;2022-10-20T05:35:11;98411.00;;;12.07;78.54
12759;BME280;20944;47.048;15.390;2022-10-20T05:38:00;98405.56;;;12.13;76.83
12759;BME280;20944;47.048;15.390;2022-10-20T05:40:48;98411.00;;;12.07;76.87
12759;BME280;20944;47.048;15.390;2022-10-20T05:43:38;98410.22;;;12.00;77.01
12759;BME280;20944;47.048;15.390;2022-10-20T05:46:31;98336.75;;;11.54;76.88
12759;BME280;20944;47.048;15.390;2022-10-20T05:49:19;98379.13;;;11.79;77.49
12759;BME280;20944;47.048;15.390;2022-10-20T05:52:09;98336.63;;;11.60;77.03
12759;BME280;20944;47.048;15.390;2022-10-20T05:54:58;98421.50;;;12.07;77.98
12759;BME280;20944;47.048;15.390;2022-10-20T05:57:48;98420.44;;;12.15;78.28
12759;BME280;20944;47.048;15.390;2022-10-20T06:00:38;98348.75;;;11.67;78.73
12759;BME280;20944;47.048;15.390;2022-10-20T06:03:38;98422.72;;;12.31;77.64
12759;BME280;20944;47.048;15.390;2022-10-20T06:06:28;98420.81;;;12.37;77.03
12759;BME280;20944;47.048;15.390;2022-10-20T06:09:17;98418.75;;;12.52;74.50
12759;BME280;20944;47.048;15.390;2022-10-20T06:12:06;98403.09;;;12.47;74.38
12759;BME280;20944;47.048;15.390;2022-10-20T06:14:55;98421.44;;;12.49;73.04
12759;BME280;20944;47.048;15.390;2022-10-20T06:17:46;98426.78;;;12.46;74.24
12759;BME280;20944;47.048;15.390;2022-10-20T06:20:35;98431.13;;;12.47;74.58
12759;BME280;20944;47.048;15.390;2022-10-20T06:23:24;98436.44;;;12.45;74.98
12759;BME280;20944;47.048;15.390;2022-10-20T06:26:14;98437.31;;;12.44;74.20
12759;BME280;20944;47.048;15.390;2022-10-20T06:29:04;98426.34;;;12.25;74.31
12759;BME280;20944;47.048;15.390;2022-10-20T06:31:54;98388.50;;;11.92;74.86
12759;BME280;20944;47.048;15.390;2022-10-20T06:34:44;98448.09;;;12.32;74.75
12759;BME280;20944;47.048;15.390;2022-10-20T06:37:33;98442.84;;;12.32;75.87
12759;BME280;20944;47.048;15.390;2022-10-20T06:40:22;98450.72;;;12.33;74.81
12759;BME280;20944;47.048;15.390;2022-10-20T06:43:10;98453.88;;;12.48;74.69
12759;BME280;20944;47.048;15.390;2022-10-20T06:46:01;98447.69;;;12.52;73.27
12759;BME280;20944;47.048;15.390;2022-10-20T06:48:50;98452.22;;;12.45;73.16
12759;BME280;20944;47.048;15.390;2022-10-20T06:51:46;98457.75;;;12.31;72.32
12759;BME280;20944;47.048;15.390;2022-10-20T06:54:35;98458.00;;;12.19;74.25
12759;BME280;20944;47.048;15.390;2022-10-20T06:57:23;98452.00;;;12.14;72.54
12759;BME280;20944;47.048;15.390;2022-10-20T07:00:13;98439.13;;;12.00;73.49
12759;BME280;20944;47.048;15.390;2022-10-20T07:03:02;98445.94;;;12.10;73.08
12759;BME280;20944;47.048;15.390;2022-10-20T07:05:50;98462.31;;;12.23;72.39
12759;BME280;20944;47.048;15.390;2022-10-20T07:08:41;98471.13;;;12.19;73.19
12759;BME280;20944;47.048;15.390;2022-10-20T07:11:31;98377.38;;;11.79;74.74
12759;BME280;20944;47.048;15.390;2022-10-20T07:14:20;98461.22;;;12.33;73.72
12759;BME280;20944;47.048;15.390;2022-10-20T07:17:08;98462.94;;;12.34;73.29
12759;BME280;20944;47.048;15.390;2022-10-20T07:19:57;98441.25;;;12.25;73.60
12759;BME280;20944;47.048;15.390;2022-10-20T07:22:46;98466.94;;;12.51;72.30
12759;BME280;20944;47.048;15.390;2022-10-20T07:25:36;98450.63;;;12.36;71.68
12759;BME280;20944;47.048;15.390;2022-10-20T07:28:25;98469.75;;;12.45;73.25
12759;BME280;20944;47.048;15.390;2022-10-20T07:31:15;98429.13;;;12.18;71.80
12759;BME280;20944;47.048;15.390;2022-10-20T07:34:06;98467.13;;;12.45;71.79
12759;BME280;20944;47.048;15.390;2022-10-20T07:37:13;98435.13;;;12.26;71.15
12759;BME280;20944;47.048;15.390;2022-10-20T07:40:02;98464.31;;;12.51;69.41
12759;BME280;20944;47.048;15.390;2022-10-20T07:42:52;98471.22;;;12.56;69.73
12759;BME280;20944;47.048;15.390;2022-10-20T07:45:41;98466.94;;;12.51;70.41
12759;BME280;20944;47.048;15.390;2022-10-20T07:48:29;98432.41;;;12.29;70.26
12759;BME280;20944;47.048;15.390;2022-10-20T07:51:25;98456.22;;;12.61;70.01
12759;BME280;20944;47.048;15.390;2022-10-20T07:54:14;98456.88;;;12.71;70.24
12759;BME280;20944;47.048;15.390;2022-10-20T07:57:03;98459.22;;;12.83;69.33
12759;BME280;20944;47.048;15.390;2022-10-20T07:59:53;98455.53;;;12.90;69.14
12759;BME280;20944;47.048;15.390;2022-10-20T08:02:42;98457.09;;;12.99;68.26
12759;BME280;20944;47.048;15.390;2022-10-20T08:05:31;98379.47;;;12.46;67.80
12759;BME280;20944;47.048;15.390;2022-10-20T08:08:20;98409.41;;;12.76;67.38
12759;BME280;20944;47.048;15.390;2022-10-20T08:11:09;98332.22;;;12.42;66.16
12759;BME280;20944;47.048;15.390;2022-10-20T08:13:58;98397.16;;;12.76;65.11
12759;BME280;20944;47.048;15.390;2022-10-20T08:16:48;98403.19;;;12.80;67.57
12759;BME280;20944;47.048;15.390;2022-10-20T08:19:37;98415.03;;;12.98;63.04
12759;BME280;20944;47.048;15.390;2022-10-20T08:22:36;98432.38;;;13.05;63.33
12759;BME280;20944;47.048;15.390;2022-10-20T08:25:25;98393.38;;;12.86;64.34
12759;BME280;20944;47.048;15.390;2022-10-20T08:28:14;98431.06;;;13.24;63.54
12759;BME280;20944;47.048;15.390;2022-10-20T08:31:03;98443.31;;;13.25;62.38
12759;BME280;20944;47.048;15.390;2022-10-20T08:33:54;98420.28;;;12.98;62.16
12759;BME280;20944;47.048;15.390;2022-10-20T08:36:43;98423.31;;;12.81;64.03
12759;BME280;20944;47.048;15.390;2022-10-20T08:39:31;98415.00;;;12.62;65.08
12759;BME280;20944;47.048;15.390;2022-10-20T08:42:20;98449.41;;;12.90;66.32
12759;BME280;20944;47.048;15.390;2022-10-20T08:45:13;98442.66;;;13.15;64.77
12759;BME280;20944;47.048;15.390;2022-10-20T08:48:03;98443.00;;;13.37;64.04
12759;BME280;20944;47.048;15.390;2022-10-20T08:50:53;98435.09;;;13.39;64.25
12759;BME280;20944;47.048;15.390;2022-10-20T08:53:44;98447.09;;;13.49;63.90
12759;BME280;20944;47.048;15.390;2022-10-20T08:56:34;98446.97;;;13.54;64.38
12759;BME280;20944;47.048;15.390;2022-10-20T08:59:26;98448.56;;;13.59;63.48
12759;BME280;20944;47.048;15.390;2022-10-20T09:02:16;98428.59;;;13.52;62.79
12759;BME280;20944;47.048;15.390;2022-10-20T09:05:06;98439.66;;;13.63;64.08
12759;BME280;20944;47.048;15.390;2022-10-20T09:08:00;98436.00;;;13.70;63.47
12759;BME280;20944;47.048;15.390;2022-10-20T09:10:51;98454.06;;;13.83;63.06
12759;BME280;20944;47.048;15.390;2022-10-20T09:13:41;98453.78;;;13.93;62.98
12759;BME280;20944;47.048;15.390;2022-10-20T09:16:31;98431.66;;;13.99;63.31
12759;BME280;20944;47.048;15.390;2022-10-20T09:19:47;98453.63;;;14.29;63.12
12759;BME280;20944;47.048;15.390;2022-10-20T09:22:37;98450.66;;;14.41;63.19
12759;BME280;20944;47.048;15.390;2022-10-20T09:25:27;98440.50;;;14.57;61.71
12759;BME280;20944;47.048;15.390;2022-10-20T09:28:20;98421.84;;;14.65;60.47
12759;BME280;20944;47.048;15.390;2022-10-20T09:31:20;98413.19;;;14.60;59.13
12759;BME280;20944;47.048;15.390;2022-10-20T09:34:19;98356.16;;;14.26;60.38
12759;BME280;20944;47.048;15.390;2022-10-20T09:37:11;98420.66;;;14.73;59.05
12759;BME280;20944;47.048;15.390;2022-10-20T09:40:02;98420.28;;;14.86;59.00
12759;BME280;20944;47.048;15.390;2022-10-20T09:42:55;98414.75;;;14.93;57.49
12759;BME280;20944;47.048;15.390;2022-10-20T09:45:51;98361.09;;;14.66;57.56
12759;BME280;20944;47.048;15.390;2022-10-20T09:48:44;98419.31;;;14.88;58.10
12759;BME280;20944;47.048;15.390;2022-10-20T09:51:35;98413.56;;;14.75;59.74
12759;BME280;20944;47.048;15.390;2022-10-20T09:54:24;98394.81;;;14.56;58.53
12759;BME280;20944;47.048;15.390;2022-10-20T09:57:16;98333.47;;;14.22;61.62
12759;BME280;20944;47.048;15.390;2022-10-20T10:00:21;98416.88;;;14.82;62.25
12759;BME280;20944;47.048;15.390;2022-10-20T10:03:23;98417.31;;;14.96;61.08
12759;BME280;20944;47.048;15.390;2022-10-20T10:06:27;98415.53;;;14.95;58.66
12759;BME280;20944;47.048;15.390;2022-10-20T10:09:25;98403.47;;;14.88;58.95
12759;BME280;20944;47.048;15.390;2022-10-20T10:12:16;98398.31;;;14.85;59.07
12759;BME280;20944;47.048;15.390;2022-10-20T10:15:27;98356.97;;;14.57;60.29
12759;BME280;20944;47.048;15.390;2022-10-20T10:18:22;98394.41;;;14.97;60.98
12759;BME280;20944;47.048;15.390;2022-10-20T10:21:13;98357.53;;;14.94;61.31
12759;BME280;20944;47.048;15.390;2022-10-20T10:24:04;98379.47;;;15.22;58.98
12759;BME280;20944;47.048;15.390;2022-10-20T10:26:54;98372.63;;;15.17;57.80
12759;BME280;20944;47.048;15.390;2022-10-20T10:29:43;98380.16;;;15.01;57.26
12759;BME280;20944;47.048;15.390;2022-10-20T10:32:42;98382.00;;;14.72;58.19
12759;BME280;20944;47.048;15.390;2022-10-20T10:35:35;98363.69;;;14.38;59.39
12759;BME280;20944;47.048;15.390;2022-10-20T10:38:26;98373.75;;;14.27;60.54
12759;BME280;20944;47.048;15.390;2022-10-20T10:41:20;98422.41;;;14.15;60.83
12759;BME280;20944;47.048;15.390;2022-10-20T10:44:17;98375.56;;;13.95;61.26
12759;BME280;20944;47.048;15.390;2022-10-20T10:47:27;98371.50;;;13.84;61.81
12759;BME280;20944;47.048;15.390;2022-10-20T10:50:28;98362.59;;;13.88;65.24
12759;BME280;20944;47.048;15.390;2022-10-20T10:53:30;98367.44;;;14.01;63.36
12759;BME280;20944;47.048;15.390;2022-10-20T10:56:29;98365.66;;;14.03;63.19
12759;BME280;20944;47.048;15.390;2022-10-20T10:59:20;98361.25;;;14.04;61.89
12759;BME280;20944;47.048;15.390;2022-10-20T11:02:39;98354.25;;;14.03;64.75
12759;BME280;20944;47.048;15.390;2022-10-20T11:06:11;98347.38;;;13.97;63.97
12759;BME280;20944;47.048;15.390;2022-10-20T11:09:20;98345.63;;;13.98;62.58
12759;BME280;20944;47.048;15.390;2022-10-20T11:12:41;98332.31;;;14.02;64.61
12759;BME280;20944;47.048;15.390;2022-10-20T11:15:44;98342.00;;;14.02;63.23
12759;BME280;20944;47.048;15.390;2022-10-20T11:18:51;98343.22;;;13.90;63.28
12759;BME280;20944;47.048;15.390;2022-10-20T11:21:51;98321.53;;;13.81;63.57
12759;BME280;20944;47.048;15.390;2022-10-20T11:24:54;98329.94;;;13.93;64.65
12759;BME280;20944;47.048;15.390;2022-10-20T11:27:45;98294.38;;;13.79;64.65
12759;BME280;20944;47.048;15.390;2022-10-20T11:30:34;98325.72;;;13.88;64.66
12759;BME280;20944;47.048;15.390;2022-10-20T11:33:26;98322.75;;;13.98;64.99
12759;BME280;20944;47.048;15.390;2022-10-20T11:36:18;98321.97;;;13.96;64.83
12759;BME280;20944;47.048;15.390;2022-10-20T11:39:15;98311.44;;;13.95;65.70
12759;BME280;20944;47.048;15.390;2022-10-20T11:42:17;98317.81;;;13.88;64.90
12759;BME280;20944;47.048;15.390;2022-10-20T11:45:24;98299.66;;;13.79;66.08
12759;BME280;20944;47.048;15.390;2022-10-20T11:48:21;98296.22;;;13.76;66.58
12759;BME280;20944;47.048;15.390;2022-10-20T11:51:39;98314.00;;;13.98;67.13
12759;BME280;20944;47.048;15.390;2022-10-20T11:54:43;98312.03;;;14.04;66.45
12759;BME280;20944;47.048;15.390;2022-10-20T11:57:48;98304.13;;;14.04;66.03
12759;BME280;20944;47.048;15.390;2022-10-20T12:01:02;98305.53;;;14.16;67.43
12759;BME280;20944;47.048;15.390;2022-10-20T12:04:04;98287.22;;;14.40;66.88
12759;BME280;20944;47.048;15.390;2022-10-20T12:07:19;98278.88;;;14.53;65.17
12759;BME280;20944;47.048;15.390;2022-10-20T12:10:36;98246.50;;;14.48;63.41
12759;BME280;20944;47.048;15.390;2022-10-20T12:13:34;98263.34;;;14.71;63.92
12759;BME280;20944;47.048;15.390;2022-10-20T12:16:57;98255.25;;;14.75;64.96
12759;BME280;20944;47.048;15.390;2022-10-20T12:19:51;98250.19;;;14.69;65.46
12759;BME280;20944;47.048;15.390;2022-10-20T12:22:41;98230.72;;;14.73;64.85
12759;BME280;20944;47.048;15.390;2022-10-20T12:25:41;98233.06;;;14.81;63.27
12759;BME280;20944;47.048;15.390;2022-10-20T12:28:39;98253.38;;;15.04;62.54
12759;BME280;20944;47.048;15.390;2022-10-20T12:34:52;98261.53;;;14.98;62.71
12759;BME280;20944;47.048;15.390;2022-10-20T12:37:41;98250.91;;;14.99;62.89
12759;BME280;20944;47.048;15.390;2022-10-20T12:40:45;98255.53;;;14.93;63.59
12759;BME280;20944;47.048;15.390;2022-10-20T12:43:47;98261.56;;;14.71;62.64
12759;BME280;20944;47.048;15.390;2022-10-20T12:46:41;98241.94;;;14.53;63.30
12759;BME280;20944;47.048;15.390;2022-10-20T12:49:32;98264.22;;;14.71;63.96
12759;BME280;20944;47.048;15.390;2022-10-20T12:52:25;98255.81;;;14.85;63.67
12759;BME280;20944;47.048;15.390;2022-10-20T12:55:16;98241.75;;;15.09;63.53
12759;BME280;20944;47.048;15.390;2022-10-20T12:58:13;98232.81;;;15.37;61.67
12759;BME280;20944;47.048;15.390;2022-10-20T13:01:13;98240.41;;;15.46;60.69
12759;BME280;20944;47.048;15.390;2022-10-20T13:04:01;98245.38;;;15.54;60.84
12759;BME280;20944;47.048;15.390;2022-10-20T13:06:50;98232.69;;;15.87;60.17
12759;BME280;20944;47.048;15.390;2022-10-20T13:09:53;98229.84;;;16.13;58.70
12759;BME280;20944;47.048;15.390;2022-10-20T13:12:49;98224.00;;;16.69;57.38
12759;BME280;20944;47.048;15.390;2022-10-20T13:15:43;98215.31;;;17.65;56.01
12759;BME280;20944;47.048;15.390;2022-10-20T13:18:37;98193.13;;;18.05;54.04
12759;BME280;20944;47.048;15.390;2022-10-20T13:21:32;98211.25;;;18.31;52.28
12759;BME280;20944;47.048;15.390;2022-10-20T13:24:25;98214.94;;;18.46;52.44
12759;BME280;20944;47.048;15.390;2022-10-20T13:27:17;98217.22;;;19.06;52.18
12759;BME280;20944;47.048;15.390;2022-10-20T13:30:07;98208.94;;;19.12;51.57
12759;BME280;20944;47.048;15.390;2022-10-20T13:33:02;98184.28;;;18.75;50.42
12759;BME280;20944;47.048;15.390;2022-10-20T13:36:17;98209.69;;;19.14;51.02
12759;BME280;20944;47.048;15.390;2022-10-20T13:39:14;98209.94;;;20.53;48.39
12759;BME280;20944;47.048;15.390;2022-10-20T13:42:15;98193.72;;;22.15;44.33
12759;BME280;20944;47.048;15.390;2022-10-20T13:45:17;98180.53;;;23.55;40.13
12759;BME280;20944;47.048;15.390;2022-10-20T13:48:20;98191.03;;;23.71;38.94
12759;BME280;20944;47.048;15.390;2022-10-20T13:51:14;98177.91;;;23.29;38.84
12759;BME280;20944;47.048;15.390;2022-10-20T13:54:07;98183.13;;;23.31;39.79
12759;BME280;20944;47.048;15.390;2022-10-20T13:56:56;98161.19;;;23.88;38.62
12759;BME280;20944;47.048;15.390;2022-10-20T13:59:54;98179.09;;;23.87;37.99
12759;BME280;20944;47.048;15.390;2022-10-20T14:02:52;98176.94;;;23.30;39.19
12759;BME280;20944;47.048;15.390;2022-10-20T14:05:42;98157.66;;;23.25;39.07
12759;BME280;20944;47.048;15.390;2022-10-20T14:08:41;98150.50;;;23.13;39.30
12759;BME280;20944;47.048;15.390;2022-10-20T14:11:30;98166.84;;;23.47;38.42
12759;BME280;20944;47.048;15.390;2022-10-20T14:14:22;98163.47;;;23.06;39.32
12759;BME280;20944;47.048;15.390;2022-10-20T14:17:19;98166.81;;;22.45;40.28
12759;BME280;20944;47.048;15.390;2022-10-20T14:20:17;98176.41;;;21.52;42.59
12759;BME280;20944;47.048;15.390;2022-10-20T14:23:09;98168.25;;;20.82;44.16
12759;BME280;20944;47.048;15.390;2022-10-20T14:25:59;98163.13;;;20.19;45.64
12759;BME280;20944;47.048;15.390;2022-10-20T14:28:50;98148.00;;;19.25;47.61
12759;BME280;20944;47.048;15.390;2022-10-20T14:31:39;98162.41;;;18.36;50.28
12759;BME280;20944;47.048;15.390;2022-10-20T14:34:31;98171.50;;;17.76;52.58
12759;BME280;20944;47.048;15.390;2022-10-20T14:37:28;98168.81;;;17.20;55.22
12759;BME280;20944;47.048;15.390;2022-10-20T14:40:21;98126.59;;;16.78;56.61
12759;BME280;20944;47.048;15.390;2022-10-20T14:43:14;98149.53;;;16.79;56.74
12759;BME280;20944;47.048;15.390;2022-10-20T14:46:05;98039.81;;;15.85;58.29
12759;BME280;20944;47.048;15.390;2022-10-20T14:48:56;98150.41;;;16.57;58.54
12759;BME280;20944;47.048;15.390;2022-10-20T14:51:54;98152.00;;;16.61;58.97
12759;BME280;20944;47.048;15.390;2022-10-20T14:54:44;98148.22;;;16.46;58.91
12759;BME280;20944;47.048;15.390;2022-10-20T14:57:43;98114.66;;;16.28;59.59
12759;BME280;20944;47.048;15.390;2022-10-20T15:00:34;98141.91;;;16.30;59.78
12759;BME280;20944;47.048;15.390;2022-10-20T15:03:23;98134.56;;;16.16;59.96
12759;BME280;20944;47.048;15.390;2022-10-20T15:06:14;98132.94;;;16.12;61.05
12759;BME280;20944;47.048;15.390;2022-10-20T15:09:04;98119.31;;;16.01;61.48